Time;durP1;ratioP1;P1;durP2;ratioP2;P2;SDS_P1;SDS_P2;PMS_P1;PMS_P2;Temp;Humidity;BMP_temperature;BMP_pressure;BME280_temperature;BME280_humidity;BME280_pressure;Samples;Min_cycle;Max_cycle;Signal;HPM_P1;HPM_P2
2022/03/20 00:00:27;;;;;;;1999.90;999.90;;;13.10;58.40;;;;;;4974916;28;20049;-86
2022/03/20 00:02:54;;;;;;;1999.90;999.90;;;13.10;58.40;;;;;;4989728;28;20038;-87
2022/03/20 00:05:20;;;;;;;1999.90;999.90;;;13.10;58.40;;;;;;5004047;28;20471;-86
2022/03/20 00:07:46;;;;;;;1999.90;999.90;;;13.10;58.50;;;;;;4989752;28;20053;-86
2022/03/20 00:10:14;;;;;;;1999.90;999.90;;;13.00;58.40;;;;;;4989998;28;20030;-87
2022/03/20 00:12:40;;;;;;;1999.90;999.90;;;13.10;58.50;;;;;;4989415;28;20404;-86
2022/03/20 00:15:06;;;;;;;1999.90;999.90;;;13.10;58.50;;;;;;4989949;28;20498;-86
2022/03/20 00:17:33;;;;;;;1999.90;999.90;;;13.10;58.50;;;;;;4985182;28;20023;-86
2022/03/20 00:19:59;;;;;;;1999.90;999.90;;;13.10;58.40;;;;;;4989036;28;20490;-86
2022/03/20 00:22:25;;;;;;;1999.90;999.90;;;13.20;58.40;;;;;;4986243;28;20031;-86
2022/03/20 00:24:51;;;;;;;1999.90;999.90;;;13.20;58.40;;;;;;5005108;28;20050;-86
2022/03/20 00:27:17;;;;;;;1999.90;999.90;;;13.20;58.30;;;;;;5006020;28;20027;-86
2022/03/20 00:29:44;;;;;;;1999.90;999.90;;;13.20;58.30;;;;;;4991999;28;20039;-86
2022/03/20 00:32:11;;;;;;;1999.90;999.90;;;13.20;58.40;;;;;;5002625;28;20114;-86
2022/03/20 00:34:37;;;;;;;1999.90;999.90;;;13.20;58.40;;;;;;5005572;28;20022;-86
2022/03/20 00:37:04;;;;;;;1999.90;999.90;;;13.10;58.40;;;;;;4989503;28;20026;-86
2022/03/20 00:39:30;;;;;;;1999.90;999.90;;;13.20;58.50;;;;;;5005080;28;20025;-86
2022/03/20 00:41:56;;;;;;;1999.90;999.90;;;13.20;58.40;;;;;;4991817;28;20030;-86
2022/03/20 00:44:22;;;;;;;1999.90;999.90;;;13.10;58.40;;;;;;4991102;28;20398;-86
2022/03/20 00:46:48;;;;;;;1999.90;999.90;;;13.10;58.50;;;;;;4989363;28;20037;-86
2022/03/20 00:49:15;;;;;;;1999.90;999.90;;;13.00;58.50;;;;;;4989412;28;20034;-86
2022/03/20 00:51:42;;;;;;;1999.90;999.90;;;13.00;58.60;;;;;;4991056;28;20022;-86
2022/03/20 00:54:09;;;;;;;1999.90;999.90;;;12.90;58.60;;;;;;4989293;28;20030;-87
2022/03/20 00:56:35;;;;;;;1999.90;999.90;;;12.90;58.60;;;;;;5006850;28;20037;-86
2022/03/20 00:59:01;;;;;;;1999.90;999.90;;;12.90;58.60;;;;;;4989583;28;20034;-87
2022/03/20 01:01:29;;;;;;;1999.90;999.90;;;12.90;58.60;;;;;;4983352;28;20034;-86
2022/03/20 01:03:56;;;;;;;1999.90;999.90;;;12.90;58.60;;;;;;4988933;28;20030;-86
2022/03/20 01:06:25;;;;;;;1999.90;999.90;;;12.90;58.60;;;;;;4972236;28;20039;-86
2022/03/20 01:08:52;;;;;;;1999.90;999.90;;;12.80;58.60;;;;;;4998236;28;20372;-87
2022/03/20 01:11:19;;;;;;;1999.90;999.90;;;12.80;58.60;;;;;;4973054;28;20022;-86
2022/03/20 01:13:45;;;;;;;1999.90;999.90;;;12.80;58.70;;;;;;4970032;28;20034;-86
2022/03/20 01:16:11;;;;;;;1999.90;999.90;;;12.80;58.70;;;;;;4973131;28;20045;-86
2022/03/20 01:18:37;;;;;;;1999.90;999.90;;;12.70;58.70;;;;;;4990117;28;20026;-86
2022/03/20 01:21:03;;;;;;;1999.90;999.90;;;12.70;58.70;;;;;;4973973;28;20046;-86
2022/03/20 01:23:29;;;;;;;1999.90;999.90;;;12.60;58.70;;;;;;4990593;28;20030;-86
2022/03/20 01:25:56;;;;;;;1999.90;999.90;;;12.60;58.80;;;;;;4990112;28;20053;-86
2022/03/20 01:28:25;;;;;;;1999.90;999.90;;;12.50;58.80;;;;;;4971198;28;20039;-86
2022/03/20 01:30:51;;;;;;;1999.90;999.90;;;12.50;58.90;;;;;;4988667;28;20034;-86
2022/03/20 01:33:18;;;;;;;1999.90;999.90;;;12.50;58.90;;;;;;4989449;28;20038;-86
2022/03/20 01:35:44;;;;;;;1999.90;999.90;;;12.50;58.90;;;;;;5005868;28;20034;-86
2022/03/20 01:38:10;;;;;;;1999.90;999.90;;;12.40;58.80;;;;;;4971724;28;20053;-85
2022/03/20 01:40:36;;;;;;;1999.90;999.90;;;12.40;58.90;;;;;;4988533;28;20038;-86
2022/03/20 01:43:03;;;;;;;1999.90;999.90;;;12.40;58.90;;;;;;4989896;28;20026;-87
2022/03/20 01:45:30;;;;;;;1999.90;999.90;;;12.40;58.90;;;;;;4987981;28;20376;-86
2022/03/20 01:47:56;;;;;;;1999.90;999.90;;;12.40;58.80;;;;;;4990848;28;20047;-86
2022/03/20 01:50:24;;;;;;;1999.90;999.90;;;12.40;58.80;;;;;;4989151;28;20467;-86
2022/03/20 01:52:51;;;;;;;1999.90;999.90;;;12.40;58.90;;;;;;4988883;28;20030;-86
2022/03/20 01:55:18;;;;;;;1999.90;999.90;;;12.40;58.80;;;;;;4983058;28;20034;-86
2022/03/20 01:57:46;;;;;;;1999.90;999.90;;;12.30;58.90;;;;;;4988574;28;20022;-86
2022/03/20 02:00:14;;;;;;;1999.90;999.90;;;12.30;58.90;;;;;;4988355;28;20047;-86
2022/03/20 02:02:41;;;;;;;1999.90;999.90;;;12.20;59.00;;;;;;5006762;28;20033;-86
2022/03/20 02:05:09;;;;;;;1999.90;999.90;;;12.20;59.00;;;;;;4971807;28;20033;-86
2022/03/20 02:07:36;;;;;;;1999.90;999.90;;;12.20;59.10;;;;;;4988768;28;20037;-86
2022/03/20 02:10:02;;;;;;;1999.90;999.90;;;12.10;59.00;;;;;;4991718;28;20037;-86
2022/03/20 02:12:29;;;;;;;1999.90;999.90;;;12.10;59.10;;;;;;4992812;28;20065;-86
2022/03/20 02:15:01;;;;;;;1999.90;999.90;;;12.10;59.10;;;;;;4993026;28;20043;-86
2022/03/20 02:17:30;;;;;;;1999.90;999.90;;;12.00;59.10;;;;;;4987174;28;20039;-86
2022/03/20 02:20:03;;;;;;;1999.90;999.90;;;12.00;59.10;;;;;;5006308;28;20035;-86
2022/03/20 02:22:30;;;;;;;1999.90;999.90;;;12.00;59.00;;;;;;4984525;28;20394;-86
2022/03/20 02:24:56;;;;;;;1999.90;999.90;;;12.00;59.00;;;;;;4960287;28;20061;-86
2022/03/20 02:27:24;;;;;;;1999.90;999.90;;;12.00;59.00;;;;;;5007185;28;20471;-86
2022/03/20 02:29:54;;;;;;;1999.90;999.90;;;11.90;59.00;;;;;;4992887;28;20499;-86
2022/03/20 02:32:23;;;;;;;1999.90;999.90;;;11.90;59.00;;;;;;4992979;28;20045;-86
2022/03/20 02:34:50;;;;;;;1999.90;999.90;;;11.80;59.00;;;;;;4991401;28;20030;-86
2022/03/20 02:37:20;;;;;;;1999.90;999.90;;;11.80;59.00;;;;;;4991519;28;20394;-86
2022/03/20 02:39:46;;;;;;;1999.90;999.90;;;11.80;59.00;;;;;;4992961;28;20034;-86
2022/03/20 02:42:14;;;;;;;1999.90;999.90;;;11.80;59.00;;;;;;4990375;28;20050;-85
2022/03/20 02:44:54;;;;;;;1999.90;999.90;;;11.70;59.10;;;;;;5010018;28;20045;-86
2022/03/20 02:47:24;;;;;;;1999.90;999.90;;;11.70;59.10;;;;;;4989284;28;20038;-86
2022/03/20 02:49:53;;;;;;;1999.90;999.90;;;11.70;59.10;;;;;;4975930;28;20491;-86
2022/03/20 02:52:30;;;;;;;1999.90;999.90;;;11.70;59.00;;;;;;4992761;28;20360;-86
2022/03/20 02:55:03;;;;;;;1999.90;999.90;;;11.70;59.00;;;;;;4974745;28;20376;-86
2022/03/20 02:57:30;;;;;;;1999.90;999.90;;;11.70;58.90;;;;;;4992419;28;20368;-86
2022/03/20 03:00:00;;;;;;;1999.90;999.90;;;11.70;58.90;;;;;;4990865;28;20522;-86
2022/03/20 03:02:31;;;;;;;1999.90;999.90;;;11.70;59.00;;;;;;4990007;28;20403;-86
2022/03/20 03:04:59;;;;;;;1999.90;999.90;;;11.70;58.90;;;;;;4971018;28;20770;-86
2022/03/20 03:07:31;;;;;;;1999.90;999.90;;;11.70;58.90;;;;;;4985239;28;20377;-87
2022/03/20 03:12:42;;;;;;;1999.90;999.90;;;11.70;58.90;;;;;;5004733;28;20041;-87
2022/03/20 03:15:21;;;;;;;1999.90;999.90;;;11.70;58.80;;;;;;4989395;28;20398;-87
2022/03/20 03:17:48;;;;;;;1999.90;999.90;;;11.70;58.80;;;;;;4990552;28;20038;-87
2022/03/20 03:20:14;;;;;;;1999.90;999.90;;;11.70;58.80;;;;;;4987557;28;20399;-87
2022/03/20 03:22:40;;;;;;;1999.90;999.90;;;11.70;58.80;;;;;;4985291;28;20368;-87
2022/03/20 03:25:06;;;;;;;1999.90;999.90;;;11.70;58.80;;;;;;4970338;28;20062;-87
2022/03/20 03:27:33;;;;;;;1999.90;999.90;;;11.70;58.80;;;;;;4990242;28;20524;-87
2022/03/20 03:29:59;;;;;;;1999.90;999.90;;;11.70;58.90;;;;;;5004691;28;20050;-87
2022/03/20 03:32:25;;;;;;;1999.90;999.90;;;11.70;58.90;;;;;;4997813;28;20235;-86
2022/03/20 03:37:36;;;;;;;1999.90;999.90;;;11.60;58.80;;;;;;4986767;28;20033;-86
2022/03/20 03:40:04;;;;;;;1999.90;999.90;;;11.60;58.80;;;;;;4989836;28;20035;-86
2022/03/20 03:42:30;;;;;;;1999.90;999.90;;;11.60;58.80;;;;;;4991025;28;20041;-86
2022/03/20 03:45:00;;;;;;;1999.90;999.90;;;11.60;58.80;;;;;;4979119;28;20419;-83
2022/03/20 03:47:26;;;;;;;1999.90;999.90;;;11.60;58.90;;;;;;5007045;28;20407;-88
2022/03/20 03:49:53;;;;;;;1999.90;999.90;;;11.60;58.90;;;;;;4989861;28;20305;-84
2022/03/20 03:52:19;;;;;;;1999.90;999.90;;;11.50;58.90;;;;;;4992031;28;20031;-87
2022/03/20 03:54:46;;;;;;;1999.90;999.90;;;11.50;58.90;;;;;;4988955;28;20273;-90
2022/03/20 03:57:12;;;;;;;1999.90;999.90;;;11.50;58.90;;;;;;4989505;28;20031;-89
2022/03/20 03:59:38;;;;;;;1999.90;999.90;;;11.50;58.90;;;;;;4997106;28;20395;-88
2022/03/20 04:02:04;;;;;;;1999.90;999.90;;;11.40;58.90;;;;;;4991603;28;20344;-88
2022/03/20 04:04:31;;;;;;;1999.90;999.90;;;11.40;58.90;;;;;;5006244;28;20525;-90
2022/03/20 04:06:57;;;;;;;1999.90;999.90;;;11.40;58.90;;;;;;4974425;28;20035;-87
2022/03/20 04:09:24;;;;;;;1999.90;999.90;;;11.40;58.90;;;;;;4989397;28;20042;-90
2022/03/20 04:11:51;;;;;;;1999.90;999.90;;;11.40;59.50;;;;;;4992685;28;20514;-89
2022/03/20 04:14:17;;;;;;;1999.90;999.90;;;11.50;58.90;;;;;;5005282;28;20026;-90
2022/03/20 04:16:43;;;;;;;1999.90;999.90;;;11.50;58.90;;;;;;4989966;28;20053;-89
2022/03/20 04:19:10;;;;;;;1999.90;999.90;;;11.50;58.90;;;;;;4990968;28;20038;-91
2022/03/20 04:21:37;;;;;;;1999.90;999.90;;;11.40;58.80;;;;;;4991904;28;20022;-89
2022/03/20 04:24:03;;;;;;;1999.90;999.90;;;11.40;58.80;;;;;;4991245;28;20475;-91
2022/03/20 04:26:29;;;;;;;1999.90;999.90;;;11.30;58.80;;;;;;5006230;28;20023;-89
2022/03/20 04:28:56;;;;;;;1999.90;999.90;;;11.30;58.80;;;;;;4991363;28;20053;-90
2022/03/20 04:31:22;;;;;;;1999.90;999.90;;;11.30;58.90;;;;;;4988402;28;20033;-91
2022/03/20 04:33:51;;;;;;;1999.90;999.90;;;11.30;58.90;;;;;;4989451;28;20026;-87
2022/03/20 04:36:17;;;;;;;1999.90;999.90;;;11.30;58.90;;;;;;4974275;28;20531;-90
2022/03/20 04:38:44;;;;;;;1999.90;999.90;;;11.30;58.90;;;;;;4993428;28;20030;-91
2022/03/20 04:41:10;;;;;;;1999.90;999.90;;;11.30;58.90;;;;;;4991347;28;20026;-89
2022/03/20 04:43:36;;;;;;;1999.90;999.90;;;11.30;58.90;;;;;;4990036;28;20078;-88
2022/03/20 04:46:02;;;;;;;1999.90;999.90;;;11.30;58.80;;;;;;4988756;28;20035;-88
2022/03/20 04:59:26;;;;;;;1999.90;999.90;;;11.20;58.70;;;;;;4993461;28;20034;-90
2022/03/20 05:01:52;;;;;;;1999.90;999.90;;;11.10;58.70;;;;;;4989303;28;20031;-89
2022/03/20 05:04:18;;;;;;;1999.90;999.90;;;11.10;58.80;;;;;;4987256;28;20038;-90
2022/03/20 05:06:44;;;;;;;1999.90;999.90;;;11.10;58.80;;;;;;4991198;28;20026;-91
2022/03/20 05:14:40;;;;;;;1999.90;999.90;;;11.00;58.80;;;;;;5006855;28;20030;-88
2022/03/20 05:17:06;;;;;;;1999.90;999.90;;;10.90;58.80;;;;;;4989595;28;20045;-89
2022/03/20 05:19:36;;;;;;;1999.90;999.90;;;10.90;58.80;;;;;;4989310;28;20034;-89
2022/03/20 05:22:03;;;;;;;1999.90;999.90;;;10.90;58.80;;;;;;4988041;28;20030;-90
2022/03/20 05:24:29;;;;;;;1999.90;999.90;;;10.80;58.80;;;;;;4990816;28;20043;-89
2022/03/20 05:26:55;;;;;;;1999.90;999.90;;;10.80;58.90;;;;;;4990355;28;20048;-89
2022/03/20 05:29:22;;;;;;;1999.90;999.90;;;10.70;58.90;;;;;;4991221;28;20046;-89
2022/03/20 05:31:49;;;;;;;1999.90;999.90;;;10.70;58.90;;;;;;4987952;28;20034;-88
2022/03/20 05:34:18;;;;;;;1999.90;999.90;;;10.70;58.90;;;;;;4987272;28;20049;-88
2022/03/20 05:36:44;;;;;;;1999.90;999.90;;;10.70;58.90;;;;;;4955107;28;20399;-89
2022/03/20 05:39:10;;;;;;;1999.90;999.90;;;10.70;58.90;;;;;;4989064;28;20603;-89
2022/03/20 05:41:50;;;;;;;1999.90;999.90;;;10.60;58.80;;;;;;5008388;28;20034;-89
2022/03/20 05:44:17;;;;;;;1999.90;999.90;;;10.60;58.80;;;;;;4991999;28;20026;-89
2022/03/20 05:46:46;;;;;;;1999.90;999.90;;;10.70;58.80;;;;;;4974892;28;20038;-89
2022/03/20 05:49:22;;;;;;;1999.90;999.90;;;10.70;58.80;;;;;;4975277;28;20046;-89
2022/03/20 05:51:48;;;;;;;1999.90;999.90;;;10.60;58.70;;;;;;4975476;28;20037;-88
2022/03/20 05:54:15;;;;;;;1999.90;999.90;;;10.70;58.70;;;;;;4976939;28;20042;-89
2022/03/20 05:59:26;;;;;;;1999.90;999.90;;;10.60;58.70;;;;;;4981638;28;20033;-89
2022/03/20 06:01:53;;;;;;;1999.90;999.90;;;10.50;58.60;;;;;;4991412;28;20038;-89
2022/03/20 06:04:19;;;;;;;1999.90;999.90;;;10.50;58.70;;;;;;4975780;28;20065;-89
2022/03/20 06:06:45;;;;;;;1999.90;999.90;;;10.40;58.70;;;;;;4975765;28;20111;-89
2022/03/20 06:09:12;;;;;;;1999.90;999.90;;;10.40;58.80;;;;;;4976889;28;20077;-89
2022/03/20 06:11:38;;;;;;;1999.90;999.90;;;10.40;58.80;;;;;;4992799;28;20034;-89
2022/03/20 06:14:04;;;;;;;1999.90;999.90;;;10.40;59.40;;;;;;4974967;28;20350;-89
2022/03/20 06:16:34;;;;;;;1999.90;999.90;;;10.40;58.80;;;;;;4991128;28;20034;-89
2022/03/20 06:19:00;;;;;;;1999.90;999.90;;;10.40;58.80;;;;;;4993461;28;20022;-89
2022/03/20 06:21:26;;;;;;;1999.90;999.90;;;10.40;58.70;;;;;;4992890;28;20046;-88
2022/03/20 06:23:54;;;;;;;1999.90;999.90;;;10.40;58.70;;;;;;4977869;28;20034;-89
2022/03/20 06:26:23;;;;;;;1999.90;999.90;;;10.30;58.70;;;;;;5009927;28;20042;-88
2022/03/20 06:28:50;;;;;;;1999.90;999.90;;;10.30;58.80;;;;;;4976661;28;20403;-88
2022/03/20 06:31:16;;;;;;;1999.90;999.90;;;10.20;58.70;;;;;;4993309;28;20049;-88
2022/03/20 06:33:46;;;;;;;1999.90;999.90;;;10.30;58.80;;;;;;4992886;28;20430;-89
2022/03/20 06:36:13;;;;;;;1999.90;999.90;;;10.30;58.70;;;;;;4975772;28;20054;-88
2022/03/20 06:38:39;;;;;;;1999.90;999.90;;;10.30;58.70;;;;;;5010457;28;20037;-88
2022/03/20 06:41:06;;;;;;;1999.90;999.90;;;10.20;58.60;;;;;;4975869;28;20030;-88
2022/03/20 06:43:37;;;;;;;1999.90;999.90;;;10.20;58.70;;;;;;4991957;28;20037;-88
2022/03/20 06:46:03;;;;;;;1999.90;999.90;;;10.20;58.70;;;;;;4991790;28;20039;-88
2022/03/20 06:48:30;;;;;;;1999.90;999.90;;;10.20;58.60;;;;;;4992732;28;20039;-88
2022/03/20 06:50:56;;;;;;;1999.90;999.90;;;10.20;58.60;;;;;;4977212;28;20035;-88
2022/03/20 06:53:22;;;;;;;1999.90;999.90;;;10.10;58.60;;;;;;4992617;28;20038;-88
2022/03/20 06:55:48;;;;;;;1999.90;999.90;;;10.10;58.60;;;;;;4992089;28;20035;-88
2022/03/20 06:58:15;;;;;;;1999.90;999.90;;;10.10;58.60;;;;;;4991330;28;20038;-88
2022/03/20 07:00:41;;;;;;;1999.90;999.90;;;10.00;58.60;;;;;;4991626;28;20030;-88
2022/03/20 07:03:08;;;;;;;1999.90;999.90;;;10.00;58.60;;;;;;4992203;28;20030;-88
2022/03/20 07:05:35;;;;;;;1999.90;999.90;;;10.00;59.20;;;;;;5008537;28;20046;-88
2022/03/20 07:08:02;;;;;;;1999.90;999.90;;;10.00;58.50;;;;;;4990765;28;20035;-88
2022/03/20 07:10:28;;;;;;;1999.90;999.90;;;10.10;58.50;;;;;;4991133;28;20042;-88
2022/03/20 07:15:43;;;;;;;1999.90;999.90;;;10.00;58.40;;;;;;4990418;28;20033;-88
2022/03/20 07:18:09;;;;;;;1999.90;999.90;;;10.00;58.60;;;;;;4992004;28;20383;-86
2022/03/20 07:20:37;;;;;;;1999.90;999.90;;;10.10;58.50;;;;;;4992844;28;20034;-88
2022/03/20 07:23:03;;;;;;;1999.90;999.90;;;10.10;58.40;;;;;;4991309;28;20037;-88
2022/03/20 07:30:58;;;;;;;1999.90;999.90;;;10.00;58.40;;;;;;4992695;28;20076;-88
2022/03/20 07:33:25;;;;;;;1999.90;999.90;;;10.00;58.40;;;;;;4974449;28;20037;-84
2022/03/20 07:35:51;;;;;;;1999.90;999.90;;;10.00;58.40;;;;;;4994163;28;20030;-91
2022/03/20 07:38:17;;;;;;;1999.90;999.90;;;10.00;58.40;;;;;;4989409;28;20026;-90
2022/03/20 07:40:43;;;;;;;1999.90;999.90;;;10.00;58.30;;;;;;4989328;28;20027;-90
2022/03/20 07:43:09;;;;;;;1999.90;999.90;;;10.00;58.30;;;;;;4990288;28;20035;-88
2022/03/20 07:45:35;;;;;;;1999.90;999.90;;;10.00;58.20;;;;;;4990763;28;20463;-88
2022/03/20 07:48:02;;;;;;;1999.90;999.90;;;10.00;58.30;;;;;;4989940;28;20038;-89
2022/03/20 07:50:28;;;;;;;1999.90;999.90;;;10.00;58.30;;;;;;4993726;28;20143;-87
2022/03/20 07:52:57;;;;;;;1999.90;999.90;;;10.10;58.30;;;;;;5006342;28;20034;-89
2022/03/20 07:55:25;;;;;;;1999.90;999.90;;;10.00;58.20;;;;;;4990017;28;20026;-89
2022/03/20 07:57:51;;;;;;;1999.90;999.90;;;10.00;58.10;;;;;;4990625;28;20050;-88
2022/03/20 08:00:24;;;;;;;1999.90;999.90;;;10.00;58.20;;;;;;4988752;28;20379;-89
2022/03/20 08:02:53;;;;;;;1999.90;999.90;;;10.10;58.20;;;;;;5004719;28;20022;-88
2022/03/20 08:05:20;;;;;;;1999.90;999.90;;;10.10;58.10;;;;;;4983509;28;20042;-89
2022/03/20 08:07:46;;;;;;;1999.90;999.90;;;10.10;58.10;;;;;;5002951;28;20045;-89
2022/03/20 08:10:12;;;;;;;1999.90;999.90;;;10.00;58.00;;;;;;4989864;28;20396;-89
2022/03/20 08:12:39;;;;;;;1999.90;999.90;;;10.10;58.00;;;;;;5005356;28;20429;-87
2022/03/20 08:15:07;;;;;;;1999.90;999.90;;;10.00;58.00;;;;;;4992180;28;20395;-88
2022/03/20 08:17:46;;;;;;;1999.90;999.90;;;10.10;58.00;;;;;;5006605;28;20022;-89
2022/03/20 08:20:12;;;;;;;1999.90;999.90;;;10.00;58.00;;;;;;4991581;28;20038;-85
2022/03/20 08:22:39;;;;;;;1999.90;999.90;;;10.00;58.00;;;;;;5000010;28;20034;-84
2022/03/20 08:25:05;;;;;;;1999.90;999.90;;;10.00;58.00;;;;;;4989915;28;20045;-84
2022/03/20 08:27:41;;;;;;;1999.90;999.90;;;10.10;58.00;;;;;;4990394;28;20039;-84
2022/03/20 08:30:11;;;;;;;1999.90;999.90;;;10.10;57.90;;;;;;4975026;28;20057;-84
2022/03/20 08:32:38;;;;;;;1999.90;999.90;;;10.10;57.90;;;;;;4989279;28;20042;-85
2022/03/20 08:35:05;;;;;;;1999.90;999.90;;;10.10;57.90;;;;;;4990073;28;20030;-85
2022/03/20 08:37:32;;;;;;;1999.90;999.90;;;10.10;57.90;;;;;;5004321;28;20588;-88
2022/03/20 08:39:58;;;;;;;1999.90;999.90;;;10.20;57.80;;;;;;5000753;28;20045;-89
2022/03/20 08:42:24;;;;;;;1999.90;999.90;;;10.20;57.80;;;;;;4972370;28;20034;-88
2022/03/20 08:44:52;;;;;;;1999.90;999.90;;;10.20;57.80;;;;;;4990105;28;20045;-89
2022/03/20 08:47:19;;;;;;;1999.90;999.90;;;10.20;57.80;;;;;;4989438;28;20034;-88
2022/03/20 08:49:45;;;;;;;1999.90;999.90;;;10.30;57.70;;;;;;5004674;28;20053;-89
2022/03/20 08:52:11;;;;;;;1999.90;999.90;;;10.40;57.70;;;;;;4988925;28;20514;-88
2022/03/20 08:54:37;;;;;;;1999.90;999.90;;;10.30;57.60;;;;;;4989553;28;20041;-88
2022/03/20 08:57:06;;;;;;;1999.90;999.90;;;10.40;57.60;;;;;;4990367;28;20034;-86
2022/03/20 08:59:32;;;;;;;1999.90;999.90;;;10.30;57.60;;;;;;5004277;28;20407;-84
2022/03/20 09:01:58;;;;;;;1999.90;999.90;;;10.40;57.70;;;;;;4990342;28;20085;-85
2022/03/20 09:04:24;;;;;;;1999.90;999.90;;;10.40;57.60;;;;;;4988638;28;20030;-88
2022/03/20 09:06:51;;;;;;;1999.90;999.90;;;10.40;57.60;;;;;;4989840;28;20635;-87
2022/03/20 09:09:17;;;;;;;1999.90;999.90;;;10.40;57.50;;;;;;4982022;28;20034;-89
2022/03/20 09:11:45;;;;;;;1999.90;999.90;;;10.50;57.50;;;;;;4990465;28;20026;-88
2022/03/20 09:14:11;;;;;;;1999.90;999.90;;;10.60;57.60;;;;;;4988650;28;20037;-89
2022/03/20 09:19:26;;;;;;;1999.90;999.90;;;10.70;57.40;;;;;;4986627;28;20049;-89
2022/03/20 09:21:53;;;;;;;1999.90;999.90;;;10.80;57.30;;;;;;4970116;28;20506;-89
2022/03/20 09:24:19;;;;;;;1999.90;999.90;;;10.90;57.20;;;;;;4986268;28;20050;-88
2022/03/20 09:26:47;;;;;;;1999.90;999.90;;;10.90;57.20;;;;;;4972738;28;20317;-91
2022/03/20 09:29:15;;;;;;;1999.90;999.90;;;11.00;57.20;;;;;;4988353;28;20495;-88
2022/03/20 09:31:41;;;;;;;1999.90;999.90;;;11.10;57.10;;;;;;4982992;28;20043;-87
2022/03/20 09:34:08;;;;;;;1999.90;999.90;;;11.20;57.10;;;;;;4955720;28;20428;-88
2022/03/20 09:36:36;;;;;;;1999.90;999.90;;;11.30;57.00;;;;;;4989085;28;20585;-88
2022/03/20 09:39:02;;;;;;;1999.90;999.90;;;11.40;56.90;;;;;;4988957;28;20038;-88
2022/03/20 09:41:30;;;;;;;1999.90;999.90;;;11.50;56.90;;;;;;4990050;28;20038;-87
2022/03/20 09:43:56;;;;;;;1999.90;999.90;;;11.60;56.90;;;;;;4972632;28;20050;-87
2022/03/20 09:46:22;;;;;;;1999.90;999.90;;;11.70;56.80;;;;;;4972535;28;20045;-89
2022/03/20 09:48:49;;;;;;;1999.90;999.90;;;11.80;56.70;;;;;;4986312;28;20526;-88
2022/03/20 09:51:15;;;;;;;1999.90;999.90;;;11.90;56.70;;;;;;4955685;28;20050;-88
2022/03/20 09:53:41;;;;;;;1999.90;999.90;;;12.00;56.70;;;;;;4955027;28;20042;-88
2022/03/20 09:56:12;;;;;;;1999.90;999.90;;;12.10;56.60;;;;;;4987206;28;20061;-84
2022/03/20 09:58:38;;;;;;;1999.90;999.90;;;12.20;56.60;;;;;;4978299;28;20053;-83
2022/03/20 10:01:04;;;;;;;1999.90;999.90;;;12.30;56.40;;;;;;4982235;28;20038;-83
2022/03/20 10:03:30;;;;;;;1999.90;999.90;;;12.50;56.30;;;;;;4987019;28;20042;-80
2022/03/20 10:06:04;;;;;;;1999.90;999.90;;;12.70;56.20;;;;;;4977032;28;20030;-89
2022/03/20 10:08:31;;;;;;;1999.90;999.90;;;12.80;56.70;;;;;;5003141;28;20038;-88
2022/03/20 10:11:13;;;;;;;1999.90;999.90;;;12.90;56.00;;;;;;4961644;28;20518;-87
2022/03/20 10:13:39;;;;;;;1999.90;999.90;;;13.00;56.00;;;;;;4999510;28;20030;-88
2022/03/20 10:16:25;;;;;;;1999.90;999.90;;;13.10;55.90;;;;;;4998239;28;20388;-87
2022/03/20 10:18:51;;;;;;;1999.90;999.90;;;13.30;55.80;;;;;;4985959;28;20038;-90
2022/03/20 10:21:19;;;;;;;1999.90;999.90;;;13.40;55.70;;;;;;4985490;28;20033;-89
2022/03/20 10:23:46;;;;;;;1999.90;999.90;;;13.60;55.60;;;;;;4978202;28;20038;-89
2022/03/20 10:26:13;;;;;;;1999.90;999.90;;;13.60;55.60;;;;;;4994737;28;20058;-84
2022/03/20 10:28:45;;;;;;;1999.90;999.90;;;13.60;55.60;;;;;;4983350;28;20510;-88
2022/03/20 10:31:17;;;;;;;1999.90;999.90;;;13.70;55.60;;;;;;4979209;28;20046;-89
2022/03/20 10:33:46;;;;;;;1999.90;999.90;;;13.70;55.60;;;;;;4988643;28;20041;-87
2022/03/20 10:36:14;;;;;;;1999.90;999.90;;;13.80;55.70;;;;;;4997966;28;20964;-87
2022/03/20 10:38:42;;;;;;;1999.90;999.90;;;13.80;55.70;;;;;;4982831;28;20394;-86
2022/03/20 10:41:34;;;;;;;1999.90;999.90;;;13.80;55.70;;;;;;4986536;28;20038;-89
2022/03/20 10:44:00;;;;;;;1999.90;999.90;;;13.90;55.70;;;;;;4981611;28;20031;-86
2022/03/20 10:46:28;;;;;;;1999.90;999.90;;;13.90;55.60;;;;;;4986267;28;20045;-86
2022/03/20 10:48:55;;;;;;;1999.90;999.90;;;13.90;55.70;;;;;;5001945;28;20026;-87
2022/03/20 10:51:37;;;;;;;1999.90;999.90;;;13.90;55.70;;;;;;4995018;28;20041;-87
2022/03/20 10:54:21;;;;;;;1999.90;999.90;;;14.00;55.70;;;;;;5007160;28;20026;-89
2022/03/20 10:57:00;;;;;;;1999.90;999.90;;;14.00;55.60;;;;;;5002711;28;20039;-89
2022/03/20 10:59:27;;;;;;;1999.90;999.90;;;14.20;55.50;;;;;;4989286;28;20038;-91
2022/03/20 11:01:53;;;;;;;1999.90;999.90;;;14.40;55.30;;;;;;4974982;28;20030;-91
2022/03/20 11:04:20;;;;;;;1999.90;999.90;;;14.60;55.10;;;;;;4990233;28;20057;-91
2022/03/20 11:06:47;;;;;;;1999.90;999.90;;;15.00;54.90;;;;;;4989648;28;20031;-91
2022/03/20 11:09:14;;;;;;;1999.90;999.90;;;15.20;54.50;;;;;;4988857;28;20042;-91
2022/03/20 11:11:43;;;;;;;1999.90;999.90;;;15.40;54.30;;;;;;5006040;28;20050;-90
2022/03/20 11:14:10;;;;;;;1999.90;999.90;;;15.60;54.30;;;;;;4989516;28;20030;-89
2022/03/20 11:17:06;;;;;;;1999.90;999.90;;;15.80;54.20;;;;;;4972171;28;20031;-91
2022/03/20 11:19:34;;;;;;;1999.90;999.90;;;16.00;54.10;;;;;;4968503;28;20491;-89
2022/03/20 11:22:09;;;;;;;1999.90;999.90;;;16.10;53.90;;;;;;4952236;28;20031;-91
2022/03/20 11:24:36;;;;;;;1999.90;999.90;;;16.10;54.00;;;;;;4967731;28;20091;-90
2022/03/20 11:27:04;;;;;;;1999.90;999.90;;;16.20;53.90;;;;;;4950986;28;20046;-91
2022/03/20 11:29:42;;;;;;;1999.90;999.90;;;16.30;53.90;;;;;;4955059;28;20502;-88
2022/03/20 11:32:08;;;;;;;1999.90;999.90;;;16.40;53.90;;;;;;4964541;28;20531;-90
2022/03/20 11:34:34;;;;;;;1999.90;999.90;;;16.70;53.80;;;;;;4938198;28;20069;-91
2022/03/20 11:37:03;;;;;;;1999.90;999.90;;;16.90;53.60;;;;;;4967211;28;20047;-89
2022/03/20 11:39:29;;;;;;;1999.90;999.90;;;17.10;53.50;;;;;;4950192;28;20043;-90
2022/03/20 11:42:19;;;;;;;1999.90;999.90;;;17.20;53.30;;;;;;4955127;28;20045;-90
2022/03/20 11:45:13;;;;;;;1999.90;999.90;;;17.40;53.20;;;;;;4970879;28;20067;-91
2022/03/20 11:47:40;;;;;;;1999.90;999.90;;;17.40;53.10;;;;;;4952011;28;20035;-91
2022/03/20 11:50:10;;;;;;;1999.90;999.90;;;17.30;52.90;;;;;;4952797;28;20054;-88
2022/03/20 11:52:58;;;;;;;1999.90;999.90;;;17.30;52.90;;;;;;4952675;28;20053;-87
2022/03/20 11:55:25;;;;;;;1999.90;999.90;;;17.30;52.80;;;;;;4947812;28;20035;-88
2022/03/20 11:57:51;;;;;;;1999.90;999.90;;;17.40;52.70;;;;;;4972122;28;20034;-88
2022/03/20 12:00:19;;;;;;;1999.90;999.90;;;17.40;52.50;;;;;;4956381;28;20020;-88
2022/03/20 12:02:51;;;;;;;1999.90;999.90;;;17.40;52.60;;;;;;4991260;28;20031;-89
2022/03/20 12:05:24;;;;;;;1999.90;999.90;;;17.40;52.50;;;;;;4991163;28;20041;-87
2022/03/20 12:08:08;;;;;;;1999.90;999.90;;;17.50;52.30;;;;;;4989473;28;20033;-87
2022/03/20 12:10:49;;;;;;;1999.90;999.90;;;17.40;52.30;;;;;;4991679;28;20046;-86
2022/03/20 12:13:33;;;;;;;1999.90;999.90;;;17.40;52.30;;;;;;4990618;28;20057;-87
2022/03/20 12:15:59;;;;;;;1999.90;999.90;;;17.40;52.50;;;;;;4989593;28;20035;-86
2022/03/20 12:18:25;;;;;;;1999.90;999.90;;;17.40;52.20;;;;;;4987752;28;20033;-86
2022/03/20 12:20:55;;;;;;;1999.90;999.90;;;17.50;52.20;;;;;;5003141;28;20030;-88
2022/03/20 12:23:31;;;;;;;1999.90;999.90;;;17.60;51.90;;;;;;4973504;28;20030;-87
2022/03/20 12:25:58;;;;;;;1999.90;999.90;;;17.70;51.80;;;;;;4988127;28;20054;-88
2022/03/20 12:28:28;;;;;;;1999.90;999.90;;;17.70;51.70;;;;;;4989611;28;20498;-89
2022/03/20 12:30:54;;;;;;;1999.90;999.90;;;17.70;51.60;;;;;;4988650;28;20065;-88
2022/03/20 12:33:27;;;;;;;1999.90;999.90;;;17.80;51.50;;;;;;4990287;28;20408;-87
2022/03/20 12:35:54;;;;;;;1999.90;999.90;;;17.70;51.50;;;;;;5002820;28;20045;-90
2022/03/20 12:38:36;;;;;;;1999.90;999.90;;;17.80;51.60;;;;;;4982562;28;20042;-91